createdAt,value
2023-06-19T04:03:08.150Z,0.8
2023-06-19T04:15:20.107Z,0.8
2023-06-19T04:30:20.854Z,0.8
2023-06-19T04:45:20.384Z,0.8
2023-06-19T05:00:20.889Z,0.8
2023-06-19T05:15:26.259Z,0.8
2023-06-19T05:30:20.453Z,0.8
2023-06-19T05:45:20.348Z,0.8
2023-06-19T06:00:22.004Z,0.9
2023-06-19T06:15:20.864Z,1.5
2023-06-19T06:30:21.726Z,2.4
2023-06-19T06:45:19.908Z,3.5
2023-06-19T07:00:20.352Z,5
2023-06-19T07:15:20.046Z,5.3
2023-06-19T07:30:21.359Z,4.5
2023-06-19T07:45:20.891Z,5.7
2023-06-19T08:00:20.879Z,7.1
2023-06-19T08:15:19.992Z,9.9
2023-06-19T08:30:20.981Z,18.2
2023-06-19T08:45:20.157Z,21.9
2023-06-19T09:00:23.022Z,21
2023-06-19T09:15:29.264Z,19
2023-06-19T09:30:20.272Z,18.8
2023-06-19T09:45:34.631Z,17.7
2023-06-19T10:00:21.275Z,19.5
2023-06-19T10:15:21.580Z,21.4
2023-06-19T10:30:21.054Z,20.6
2023-06-19T10:45:20.918Z,21
2023-06-19T11:00:20.623Z,24.1
2023-06-19T11:15:20.321Z,23.3
2023-06-19T11:30:20.910Z,23
2023-06-19T11:45:19.998Z,23.8
2023-06-19T12:00:21.106Z,25.1
2023-06-19T12:15:20.332Z,26.4
2023-06-19T12:30:21.229Z,23
2023-06-19T12:45:20.827Z,20.3
2023-06-19T13:00:20.370Z,13.3
2023-06-19T13:15:20.149Z,14.8
2023-06-19T13:30:21.207Z,24.2
2023-06-19T13:45:20.663Z,36.5
2023-06-19T14:00:21.103Z,55.7
2023-06-19T14:15:21.360Z,49.5
2023-06-19T14:30:21.225Z,51
2023-06-19T14:45:20.808Z,40.2
2023-06-19T15:00:20.360Z,48.3
2023-06-19T15:15:20.202Z,23.1
2023-06-19T15:30:20.828Z,32.8
2023-06-19T15:45:20.605Z,29.7
2023-06-19T16:00:20.729Z,42.1
2023-06-19T16:15:20.643Z,63.8
2023-06-19T16:30:22.045Z,54.6
2023-06-19T16:45:20.998Z,51.5
2023-06-19T17:00:21.355Z,47.4
2023-06-19T17:15:20.895Z,42.6
2023-06-19T17:30:21.914Z,30.2
2023-06-19T17:45:20.615Z,29.4
2023-06-19T18:00:20.166Z,23.2
2023-06-19T18:15:20.863Z,15.1
2023-06-19T18:30:20.558Z,7.6
2023-06-19T18:45:20.410Z,5.6
2023-06-19T19:00:19.972Z,3.8
2023-06-19T19:15:20.817Z,2.5
2023-06-19T19:30:20.678Z,1
2023-06-19T19:45:20.295Z,0.8
2023-06-19T20:00:20.047Z,0.8
2023-06-19T20:15:19.933Z,0.8
2023-06-19T20:30:21.079Z,2
2023-06-19T20:45:21.273Z,2
2023-06-19T21:00:21.068Z,2
2023-06-19T21:15:20.817Z,2
